^^
Grace C. Lehan Memorial Weather Station Historical Data
Daily Summary for May 22, 2021 Units:  Both    English   Metric
Daily Weekly Monthly Yearly
  High: Low: Average:
Temperature: 90.7 °F /  32.6 °C 58.7 °F /  14.8 °C 74.8 °F /  23.8 °C
Dew Point: 66.6 °F /  19.2 °C 51.4 °F /  10.8 °C 58.9 °F /  14.9 °C
Humidity: 81% 40.7% 60%
Wind Speed: 10mph /  16.1km/h - 1.3mph /  2.1km/h
Wind Gust: 19mph /  30.6km/h - -
Wind- - WNW
Pressure: 30.29 in /  1025.6 hPa 29.94 in /  1013.8 hPa -
Precipitation: 0.00 in /  0 mm    
 
 
Tabular Data for May 22, 2021
Time Temperature Dew Point Pressure Wind Wind Speed Wind Gust Humidity Rainfall Rate (Hourly) solar
00:00 63.8 °F /  17.7 °C 51.4 °F /  10.8 °C 30.29in /  1025.6hPa Calm     64% 0.00in /  0mm 0 W/m2
00:09 63.7 °F /  17.6 °C 51.6 °F /  10.9 °C 30.29in /  1025.6hPa Calm     64.7% 0.00in /  0mm 0 W/m2
00:14 63.6 °F /  17.6 °C 51.6 °F /  10.9 °C 30.29in /  1025.6hPa Calm     65% 0.00in /  0mm 0 W/m2
00:19 63.5 °F /  17.5 °C 51.5 °F /  10.8 °C 30.29in /  1025.6hPa Calm     65% 0.00in /  0mm 0 W/m2
00:24 63.4 °F /  17.4 °C 51.5 °F /  10.8 °C 30.29in /  1025.6hPa Calm     65.1% 0.00in /  0mm 0 W/m2
00:29 63.3 °F /  17.4 °C 51.7 °F /  10.9 °C 30.29in /  1025.6hPa Calm     65.6% 0.00in /  0mm 0 W/m2
00:34 63.2 °F /  17.3 °C 51.7 °F /  10.9 °C 30.28in /  1025.3hPa Calm     66% 0.00in /  0mm 0 W/m2
00:39 63.1 °F /  17.3 °C 51.6 °F /  10.9 °C 30.28in /  1025.3hPa Calm     66% 0.00in /  0mm 0 W/m2
00:44 63 °F /  17.2 °C 51.8 °F /  11 °C 30.28in /  1025.3hPa Calm     66.6% 0.00in /  0mm 0 W/m2
00:49 62.9 °F /  17.2 °C 51.8 °F /  11 °C 30.28in /  1025.3hPa Calm     67% 0.00in /  0mm 0 W/m2
00:54 62.8 °F /  17.1 °C 51.7 °F /  10.9 °C 30.28in /  1025.3hPa Calm     67% 0.00in /  0mm 0 W/m2
00:59 62.7 °F /  17.1 °C 51.6 °F /  10.9 °C 30.27in /  1024.9hPa Calm     67% 0.00in /  0mm 0 W/m2
01:04 62.6 °F /  17 °C 51.5 °F /  10.8 °C 30.27in /  1024.9hPa Calm     67% 0.00in /  0mm 0 W/m2
01:09 62.5 °F /  16.9 °C 51.4 °F /  10.8 °C 30.27in /  1024.9hPa Calm     67% 0.00in /  0mm 0 W/m2
01:14 62.5 °F /  16.9 °C 51.4 °F /  10.8 °C 30.26in /  1024.6hPa Calm   1mph /  1.6km/h 67% 0.00in /  0mm 0 W/m2
01:19 62.4 °F /  16.9 °C 51.5 °F /  10.8 °C 30.26in /  1024.6hPa Calm   1mph /  1.6km/h 67.7% 0.00in /  0mm 0 W/m2
01:24 62.3 °F /  16.8 °C 51.6 °F /  10.9 °C 30.26in /  1024.6hPa Calm   1mph /  1.6km/h 68% 0.00in /  0mm 0 W/m2
01:29 62.2 °F /  16.8 °C 51.5 °F /  10.8 °C 30.26in /  1024.6hPa Calm   1mph /  1.6km/h 68% 0.00in /  0mm 0 W/m2
01:34 62.1 °F /  16.7 °C 51.5 °F /  10.8 °C 30.26in /  1024.6hPa Calm   1mph /  1.6km/h 68% 0.00in /  0mm 0 W/m2
01:39 62.1 °F /  16.7 °C 51.4 °F /  10.8 °C 30.26in /  1024.6hPa Calm     68.1% 0.00in /  0mm 0 W/m2
01:44 62 °F /  16.7 °C 51.7 °F /  10.9 °C 30.26in /  1024.6hPa Calm     69% 0.00in /  0mm 0 W/m2
01:49 61.8 °F /  16.6 °C 51.6 °F /  10.9 °C 30.25in /  1024.3hPa Calm     69% 0.00in /  0mm 0 W/m2
01:54 61.7 °F /  16.5 °C 51.5 °F /  10.8 °C 30.25in /  1024.3hPa Calm     69.1% 0.00in /  0mm 0 W/m2
01:59 61.6 °F /  16.4 °C 51.8 °F /  11 °C 30.25in /  1024.3hPa Calm     70% 0.00in /  0mm 0 W/m2
02:04 61.6 °F /  16.4 °C 51.7 °F /  10.9 °C 30.25in /  1024.3hPa Calm     70% 0.00in /  0mm 0 W/m2
02:09 61.4 °F /  16.3 °C 51.6 °F /  10.9 °C 30.25in /  1024.3hPa Calm     70% 0.00in /  0mm 0 W/m2
02:14 61.3 °F /  16.3 °C 51.5 °F /  10.8 °C 30.25in /  1024.3hPa Calm     70% 0.00in /  0mm 0 W/m2
02:19 61.2 °F /  16.2 °C 51.5 °F /  10.8 °C 30.25in /  1024.3hPa Calm     70.2% 0.00in /  0mm 0 W/m2
02:24 61.1 °F /  16.2 °C 51.7 °F /  10.9 °C 30.24in /  1023.9hPa Calm     71% 0.00in /  0mm 0 W/m2
02:29 61.1 °F /  16.2 °C 51.6 °F /  10.9 °C 30.24in /  1023.9hPa Calm     71% 0.00in /  0mm 0 W/m2
02:34 61 °F /  16.1 °C 51.7 °F /  10.9 °C 30.24in /  1023.9hPa Calm     71.4% 0.00in /  0mm 0 W/m2
02:39 60.9 °F /  16.1 °C 51.7 °F /  10.9 °C 30.24in /  1023.9hPa Calm     71.5% 0.00in /  0mm 0 W/m2
02:44 60.8 °F /  16 °C 51.8 °F /  11 °C 30.24in /  1023.9hPa Calm     72% 0.00in /  0mm 0 W/m2
02:49 60.8 °F /  16 °C 51.7 °F /  10.9 °C 30.24in /  1023.9hPa Calm     72% 0.00in /  0mm 0 W/m2
02:54 60.7 °F /  15.9 °C 51.8 °F /  11 °C 30.24in /  1023.9hPa Calm     72.3% 0.00in /  0mm 0 W/m2
02:59 60.6 °F /  15.9 °C 51.9 °F /  11.1 °C 30.24in /  1023.9hPa Calm     73% 0.00in /  0mm 0 W/m2
03:04 60.5 °F /  15.8 °C 51.9 °F /  11.1 °C 30.23in /  1023.6hPa Calm     73.2% 0.00in /  0mm 0 W/m2
03:09 60.4 °F /  15.8 °C 52.1 °F /  11.2 °C 30.23in /  1023.6hPa Calm     74% 0.00in /  0mm 0 W/m2
03:14 60.3 °F /  15.7 °C 52 °F /  11.1 °C 30.23in /  1023.6hPa Calm     74% 0.00in /  0mm 0 W/m2
03:19 60.2 °F /  15.7 °C 52 °F /  11.1 °C 30.23in /  1023.6hPa Calm     74.2% 0.00in /  0mm 0 W/m2
03:24 60.1 °F /  15.6 °C 52.2 °F /  11.2 °C 30.23in /  1023.6hPa Calm     75% 0.00in /  0mm 0 W/m2
03:29 60.1 °F /  15.6 °C 52.1 °F /  11.2 °C 30.23in /  1023.6hPa Calm     75% 0.00in /  0mm 0 W/m2
03:34 60 °F /  15.6 °C 52.1 °F /  11.2 °C 30.22in /  1023.2hPa Calm     75% 0.00in /  0mm 0 W/m2
03:39 59.9 °F /  15.5 °C 52 °F /  11.1 °C 30.22in /  1023.2hPa Calm     75% 0.00in /  0mm 0 W/m2
03:44 59.9 °F /  15.5 °C 51.9 °F /  11.1 °C 30.22in /  1023.2hPa Calm     75% 0.00in /  0mm 0 W/m2
03:49 59.8 °F /  15.4 °C 52 °F /  11.1 °C 30.22in /  1023.2hPa Calm     75.3% 0.00in /  0mm 0 W/m2
03:54 59.7 °F /  15.4 °C 52.1 °F /  11.2 °C 30.22in /  1023.2hPa Calm     76% 0.00in /  0mm 0 W/m2
03:59 59.6 °F /  15.3 °C 52 °F /  11.1 °C 30.22in /  1023.2hPa Calm     76% 0.00in /  0mm 0 W/m2
04:00 59.6 °F /  15.3 °C 52 °F /  11.1 °C 30.22in /  1023.2hPa Calm     76% 0.00in /  0mm 0 W/m2
04:09 59.4 °F /  15.2 °C 51.9 °F /  11.1 °C 30.22in /  1023.2hPa Calm     76% 0.00in /  0mm 0 W/m2
04:14 59.3 °F /  15.2 °C 51.9 °F /  11.1 °C 30.22in /  1023.2hPa Calm     76.5% 0.00in /  0mm 0 W/m2
04:19 59.2 °F /  15.1 °C 52 °F /  11.1 °C 30.22in /  1023.2hPa Calm     77% 0.00in /  0mm 0 W/m2
04:24 59.1 °F /  15.1 °C 51.9 °F /  11.1 °C 30.22in /  1023.2hPa Calm     77% 0.00in /  0mm 0 W/m2
04:29 59 °F /  15 °C 51.8 °F /  11 °C 30.22in /  1023.2hPa Calm     77% 0.00in /  0mm 0 W/m2
04:34 58.9 °F /  14.9 °C 51.8 °F /  11 °C 30.22in /  1023.2hPa Calm     77% 0.00in /  0mm 0 W/m2
04:39 58.9 °F /  14.9 °C 51.7 °F /  10.9 °C 30.22in /  1023.2hPa Calm     77% 0.00in /  0mm 0 W/m2
04:44 58.8 °F /  14.9 °C 51.9 °F /  11.1 °C 30.21in /  1022.9hPa Calm     77.8% 0.00in /  0mm 0 W/m2
04:49 58.7 °F /  14.8 °C 51.9 °F /  11.1 °C 30.21in /  1022.9hPa Calm     78% 0.00in /  0mm 0 W/m2
04:54 58.7 °F /  14.8 °C 51.9 °F /  11.1 °C 30.21in /  1022.9hPa Calm     78% 0.00in /  0mm 0 W/m2
04:59 58.7 °F /  14.8 °C 52 °F /  11.1 °C 30.21in /  1022.9hPa Calm     78.4% 0.00in /  0mm 0 W/m2
05:04 58.7 °F /  14.8 °C 52.2 °F /  11.2 °C 30.21in /  1022.9hPa Calm     79% 0.00in /  0mm 0 W/m2
05:09 58.7 °F /  14.8 °C 52.2 °F /  11.2 °C 30.21in /  1022.9hPa Calm     79% 0.00in /  0mm 0 W/m2
05:14 58.7 °F /  14.8 °C 52.2 °F /  11.2 °C 30.21in /  1022.9hPa Calm     79% 0.00in /  0mm 0 W/m2
05:19 58.7 °F /  14.8 °C 52.2 °F /  11.2 °C 30.21in /  1022.9hPa Calm     79% 0.00in /  0mm 0 W/m2
05:24 58.7 °F /  14.8 °C 52.2 °F /  11.2 °C 30.21in /  1022.9hPa Calm     79% 0.00in /  0mm 0 W/m2
05:29 58.7 °F /  14.8 °C 52.3 °F /  11.3 °C 30.21in /  1022.9hPa Calm     79% 0.00in /  0mm 0 W/m2
05:34 58.8 °F /  14.9 °C 52.6 °F /  11.4 °C 30.21in /  1022.9hPa Calm     79.7% 0.00in /  0mm 5 W/m2
05:39 58.9 °F /  14.9 °C 52.7 °F /  11.5 °C 30.21in /  1022.9hPa Calm     80% 0.00in /  0mm 9 W/m2
05:44 59 °F /  15 °C 52.8 °F /  11.6 °C 30.21in /  1022.9hPa Calm     80% 0.00in /  0mm 9 W/m2
05:49 59 °F /  15 °C 52.9 °F /  11.6 °C 30.21in /  1022.9hPa Calm     80% 0.00in /  0mm 11 W/m2
05:54 59.1 °F /  15.1 °C 53 °F /  11.7 °C 30.21in /  1022.9hPa Calm     80% 0.00in /  0mm 11 W/m2
05:59 59.2 °F /  15.1 °C 53 °F /  11.7 °C 30.20in /  1022.6hPa Calm     80% 0.00in /  0mm 11 W/m2
06:04 59.3 °F /  15.2 °C 53.2 °F /  11.8 °C 30.20in /  1022.6hPa Calm     80.3% 0.00in /  0mm 12 W/m2
06:09 59.3 °F /  15.2 °C 53.3 °F /  11.8 °C 30.20in /  1022.6hPa Calm     80.5% 0.00in /  0mm 14 W/m2
06:14 59.4 °F /  15.2 °C 53.5 °F /  11.9 °C 30.20in /  1022.6hPa Calm     80.9% 0.00in /  0mm 16 W/m2
06:19 59.5 °F /  15.3 °C 53.4 °F /  11.9 °C 30.20in /  1022.6hPa Calm     80.1% 0.00in /  0mm 21 W/m2
06:24 59.5 °F /  15.3 °C 53.5 °F /  11.9 °C 30.20in /  1022.6hPa Calm     80.5% 0.00in /  0mm 28 W/m2
06:29 59.6 °F /  15.3 °C 53.5 °F /  11.9 °C 30.20in /  1022.6hPa Calm     80% 0.00in /  0mm 32 W/m2
06:34 59.8 °F /  15.4 °C 53.6 °F /  12 °C 30.20in /  1022.6hPa Calm     80.1% 0.00in /  0mm 33 W/m2
06:39 59.9 °F /  15.5 °C 53.9 °F /  12.2 °C 30.20in /  1022.6hPa Calm     80.4% 0.00in /  0mm 33 W/m2
06:44 60 °F /  15.6 °C 53.8 °F /  12.1 °C 30.20in /  1022.6hPa Calm     80% 0.00in /  0mm 33 W/m2
06:49 60.2 °F /  15.7 °C 54.1 °F /  12.3 °C 30.20in /  1022.6hPa Calm     80.3% 0.00in /  0mm 30 W/m2
06:54 60.3 °F /  15.7 °C 54.2 °F /  12.3 °C 30.20in /  1022.6hPa Calm     80.4% 0.00in /  0mm 33 W/m2
06:59 60.4 °F /  15.8 °C 54.2 °F /  12.3 °C 30.20in /  1022.6hPa Calm     80% 0.00in /  0mm 37 W/m2
07:04 60.5 °F /  15.8 °C 54.3 °F /  12.4 °C 30.20in /  1022.6hPa Calm     80% 0.00in /  0mm 40 W/m2
07:09 60.6 °F /  15.9 °C 54.4 °F /  12.4 °C 30.20in /  1022.6hPa Calm     80% 0.00in /  0mm 44 W/m2
07:14 60.8 °F /  16 °C 54.6 °F /  12.6 °C 30.20in /  1022.6hPa Calm     80% 0.00in /  0mm 49 W/m2
07:19 60.9 °F /  16.1 °C 54.9 °F /  12.7 °C 30.20in /  1022.6hPa Calm     80.7% 0.00in /  0mm 56 W/m2
07:24 61 °F /  16.1 °C 55.1 °F /  12.8 °C 30.19in /  1022.2hPa Calm     81% 0.00in /  0mm 60 W/m2
07:29 61.1 °F /  16.2 °C 55.1 °F /  12.8 °C 30.19in /  1022.2hPa Calm     80.6% 0.00in /  0mm 67 W/m2
07:34 61.2 °F /  16.2 °C 55 °F /  12.8 °C 30.19in /  1022.2hPa Calm     80% 0.00in /  0mm 90 W/m2
07:39 61.4 °F /  16.3 °C 55.2 °F /  12.9 °C 30.19in /  1022.2hPa Calm     80% 0.00in /  0mm 109 W/m2
07:44 61.5 °F /  16.4 °C 55.2 °F /  12.9 °C 30.19in /  1022.2hPa Calm     79.6% 0.00in /  0mm 121 W/m2
07:49 61.8 °F /  16.6 °C 55.1 °F /  12.8 °C 30.19in /  1022.2hPa Calm     78.8% 0.00in /  0mm 135 W/m2
07:54 62 °F /  16.7 °C 55.2 °F /  12.9 °C 30.19in /  1022.2hPa Calm     78.3% 0.00in /  0mm 146 W/m2
07:59 62.3 °F /  16.8 °C 55.3 °F /  12.9 °C 30.19in /  1022.2hPa Calm     78% 0.00in /  0mm 162 W/m2
08:00 62.5 °F /  16.9 °C 55.6 °F /  13.1 °C 30.19in /  1022.2hPa Calm     78% 0.00in /  0mm 162 W/m2
08:09 63 °F /  17.2 °C 56 °F /  13.3 °C 30.19in /  1022.2hPa Calm     77.8% 0.00in /  0mm 167 W/m2
08:14 63.4 °F /  17.4 °C 56.2 °F /  13.4 °C 30.19in /  1022.2hPa Calm     77.6% 0.00in /  0mm 156 W/m2
08:19 63.7 °F /  17.6 °C 56 °F /  13.3 °C 30.19in /  1022.2hPa Calm     76.2% 0.00in /  0mm 146 W/m2
08:24 63.9 °F /  17.7 °C 56 °F /  13.3 °C 30.19in /  1022.2hPa Calm     75.6% 0.00in /  0mm 155 W/m2
08:29 64.2 °F /  17.9 °C 56.4 °F /  13.6 °C 30.19in /  1022.2hPa Calm     75.7% 0.00in /  0mm 167 W/m2
08:34 64.5 °F /  18.1 °C 56.5 °F /  13.6 °C 30.19in /  1022.2hPa Calm     75.1% 0.00in /  0mm 214 W/m2
08:39 64.8 °F /  18.2 °C 56.5 °F /  13.6 °C 30.19in /  1022.2hPa Calm     74.3% 0.00in /  0mm 232 W/m2
08:44 65.2 °F /  18.4 °C 56.7 °F /  13.7 °C 30.19in /  1022.2hPa Calm     74% 0.00in /  0mm 248 W/m2
08:49 65.6 °F /  18.7 °C 57.1 °F /  13.9 °C 30.19in /  1022.2hPa Calm     73.9% 0.00in /  0mm 267 W/m2
08:54 66 °F /  18.9 °C 57.1 °F /  13.9 °C 30.19in /  1022.2hPa Calm     73% 0.00in /  0mm 283 W/m2
08:59 66.4 °F /  19.1 °C 57.6 °F /  14.2 °C 30.18in /  1021.9hPa Calm     73.2% 0.00in /  0mm 360 W/m2
09:04 67 °F /  19.4 °C 58.3 °F /  14.6 °C 30.18in /  1021.9hPa Calm     73.4% 0.00in /  0mm 396 W/m2
09:09 67.8 °F /  19.9 °C 58.7 °F /  14.8 °C 30.18in /  1021.9hPa Calm     72.6% 0.00in /  0mm 680 W/m2
09:14 68.9 °F /  20.5 °C 58.5 °F /  14.7 °C 30.18in /  1021.9hPa Calm     69.5% 0.00in /  0mm 754 W/m2
09:19 69.6 °F /  20.9 °C 58.7 °F /  14.8 °C 30.18in /  1021.9hPa Calm     68.2% 0.00in /  0mm 459 W/m2
09:24 70 °F /  21.1 °C 59.1 °F /  15.1 °C 30.18in /  1021.9hPa Calm     68.4% 0.00in /  0mm 745 W/m2
09:29 71 °F /  21.7 °C 59.8 °F /  15.4 °C 30.17in /  1021.6hPa Calm     67.7% 0.00in /  0mm 867 W/m2
09:34 72.3 °F /  22.4 °C 60.2 °F /  15.7 °C 30.17in /  1021.6hPa Calm     65.7% 0.00in /  0mm 756 W/m2
09:39 73.4 °F /  23 °C 60.4 °F /  15.8 °C 30.17in /  1021.6hPa Calm     63.9% 0.00in /  0mm 721 W/m2
09:44 74.4 °F /  23.6 °C 61.5 °F /  16.4 °C 30.17in /  1021.6hPa Calm     64.1% 0.00in /  0mm 605 W/m2
09:49 75.1 °F /  23.9 °C 60.8 °F /  16 °C 30.16in /  1021.2hPa Calm     61.2% 0.00in /  0mm 575 W/m2
09:54 75.5 °F /  24.2 °C 61 °F /  16.1 °C 30.16in /  1021.2hPa Calm     60.8% 0.00in /  0mm 668 W/m2
09:59 75.9 °F /  24.4 °C 61.7 °F /  16.5 °C 30.16in /  1021.2hPa Calm     61.5% 0.00in /  0mm 761 W/m2
10:04 76.4 °F /  24.7 °C 62.1 °F /  16.7 °C 30.16in /  1021.2hPa Calm     61.2% 0.00in /  0mm 761 W/m2
10:09 76.7 °F /  24.8 °C 61.7 °F /  16.5 °C 30.16in /  1021.2hPa Calm     59.9% 0.00in /  0mm 777 W/m2
10:14 76.8 °F /  24.9 °C 62.1 °F /  16.7 °C 30.15in /  1020.9hPa Calm     60.4% 0.00in /  0mm 777 W/m2
10:19 77.1 °F /  25.1 °C 62.1 °F /  16.7 °C 30.15in /  1020.9hPa Calm     60% 0.00in /  0mm 649 W/m2
10:24 77.4 °F /  25.2 °C 62.2 °F /  16.8 °C 30.15in /  1020.9hPa Calm     59.5% 0.00in /  0mm 649 W/m2
10:29 77.7 °F /  25.4 °C 62.4 °F /  16.9 °C 30.15in /  1020.9hPa Calm     59.4% 0.00in /  0mm 469 W/m2
10:34 77.9 °F /  25.5 °C 62.4 °F /  16.9 °C 30.14in /  1020.5hPa Calm     59% 0.00in /  0mm 589 W/m2
10:39 78.1 °F /  25.6 °C 63 °F /  17.2 °C 30.14in /  1020.5hPa Calm     59.8% 0.00in /  0mm 640 W/m2
10:44 78.3 °F /  25.7 °C 62.9 °F /  17.2 °C 30.14in /  1020.5hPa Calm     59.2% 0.00in /  0mm 554 W/m2
10:49 78.7 °F /  25.9 °C 63.8 °F /  17.7 °C 30.14in /  1020.5hPa Calm     60.2% 0.00in /  0mm 645 W/m2
10:54 79.3 °F /  26.3 °C 63.9 °F /  17.7 °C 30.14in /  1020.5hPa Calm     59.3% 0.00in /  0mm 663 W/m2
10:59 80 °F /  26.7 °C 64.6 °F /  18.1 °C 30.14in /  1020.5hPa Calm     59.5% 0.00in /  0mm 715 W/m2
11:04 80.8 °F /  27.1 °C 65.2 °F /  18.4 °C 30.13in /  1020.2hPa Calm     59.1% 0.00in /  0mm 698 W/m2
11:09 81.5 °F /  27.5 °C 65.6 °F /  18.7 °C 30.13in /  1020.2hPa Calm     58.6% 0.00in /  0mm 708 W/m2
11:14 82 °F /  27.8 °C 65.5 °F /  18.6 °C 30.13in /  1020.2hPa Calm     57.4% 0.00in /  0mm 680 W/m2
11:19 82.6 °F /  28.1 °C 66.1 °F /  18.9 °C 30.12in /  1019.9hPa Calm     57.5% 0.00in /  0mm 745 W/m2
11:24 83.1 °F /  28.4 °C 65.4 °F /  18.6 °C 30.12in /  1019.9hPa Calm     55.4% 0.00in /  0mm 742 W/m2
11:29 83.6 °F /  28.7 °C 66.1 °F /  18.9 °C 30.12in /  1019.9hPa Calm     55.8% 0.00in /  0mm 779 W/m2
11:34 84.2 °F /  29 °C 66.4 °F /  19.1 °C 30.11in /  1019.5hPa Calm     55.2% 0.00in /  0mm 772 W/m2
11:39 84.9 °F /  29.4 °C 66.6 °F /  19.2 °C 30.11in /  1019.5hPa Calm     54.3% 0.00in /  0mm 731 W/m2
11:44 85.4 °F /  29.7 °C 66.5 °F /  19.2 °C 30.11in /  1019.5hPa WSW 1.2mph /  1.9km/h 10mph /  16.1km/h 53.3% 0.00in /  0mm 497 W/m2
11:49 85.6 °F /  29.8 °C 65.4 °F /  18.6 °C 30.11in /  1019.5hPa West 1.3mph /  2.1km/h 10mph /  16.1km/h 51% 0.00in /  0mm 547 W/m2
11:54 86.1 °F /  30.1 °C 65.4 °F /  18.6 °C 30.11in /  1019.5hPa WNW 1.9mph /  3.1km/h 10mph /  16.1km/h 50.2% 0.00in /  0mm 501 W/m2
11:59 86.4 °F /  30.2 °C 63.2 °F /  17.3 °C 30.10in /  1019.2hPa WNW 2.8mph /  4.5km/h 11mph /  17.7km/h 46.1% 0.00in /  0mm 406 W/m2
12:00 86.4 °F /  30.2 °C 62.6 °F /  17 °C 30.10in /  1019.2hPa Calm   11mph /  17.7km/h 45% 0.00in /  0mm 396 W/m2
12:09 86.5 °F /  30.3 °C 63.8 °F /  17.7 °C 30.10in /  1019.2hPa West 1.3mph /  2.1km/h 6mph /  9.7km/h 46.8% 0.00in /  0mm 415 W/m2
12:14 86.6 °F /  30.3 °C 64.3 °F /  17.9 °C 30.10in /  1019.2hPa WNW 0.4mph /  0.6km/h 6mph /  9.7km/h 47.5% 0.00in /  0mm 424 W/m2
12:19 86.8 °F /  30.4 °C 64.3 °F /  17.9 °C 30.10in /  1019.2hPa WNW 2.5mph /  4km/h 7mph /  11.3km/h 47.3% 0.00in /  0mm 399 W/m2
12:24 86.7 °F /  30.4 °C 62.8 °F /  17.1 °C 30.09in /  1018.8hPa WNW 3.5mph /  5.6km/h 9mph /  14.5km/h 44.8% 0.00in /  0mm 390 W/m2
12:29 86.6 °F /  30.3 °C 63.3 °F /  17.4 °C 30.09in /  1018.8hPa WNW 3mph /  4.8km/h 9mph /  14.5km/h 45.9% 0.00in /  0mm 432 W/m2
12:34 86.5 °F /  30.3 °C 63.8 °F /  17.7 °C 30.09in /  1018.8hPa West 1.3mph /  2.1km/h 9mph /  14.5km/h 47% 0.00in /  0mm 513 W/m2
12:38 86.5 °F /  30.3 °C 64 °F /  17.8 °C 30.09in /  1018.8hPa West 1.7mph /  2.7km/h 6mph /  9.7km/h 47.2% 0.00in /  0mm 564 W/m2
12:44 86.6 °F /  30.3 °C 64.1 °F /  17.8 °C 30.08in /  1018.5hPa NW 2.5mph /  4km/h 7mph /  11.3km/h 47.2% 0.00in /  0mm 615 W/m2
12:49 86.8 °F /  30.4 °C 63.6 °F /  17.6 °C 30.08in /  1018.5hPa NW 2.7mph /  4.3km/h 7mph /  11.3km/h 46% 0.00in /  0mm 939 W/m2
12:54 87.2 °F /  30.7 °C 64.1 °F /  17.8 °C 30.08in /  1018.5hPa NW 1.9mph /  3.1km/h 7mph /  11.3km/h 46.3% 0.00in /  0mm 969 W/m2
12:59 88 °F /  31.1 °C 64.8 °F /  18.2 °C 30.08in /  1018.5hPa WNW 2.9mph /  4.7km/h 9mph /  14.5km/h 46.4% 0.00in /  0mm 995 W/m2
13:04 88.6 °F /  31.4 °C 63.9 °F /  17.7 °C 30.07in /  1018.2hPa WNW 3.5mph /  5.6km/h 10mph /  16.1km/h 43.9% 0.00in /  0mm 1014 W/m2
13:09 89 °F /  31.7 °C 63.3 °F /  17.4 °C 30.07in /  1018.2hPa WNW 3.9mph /  6.3km/h 10mph /  16.1km/h 42.5% 0.00in /  0mm 933 W/m2
13:14 89 °F /  31.7 °C 64.4 °F /  18 °C 30.07in /  1018.2hPa WNW 2.6mph /  4.2km/h 10mph /  16.1km/h 44.2% 0.00in /  0mm 988 W/m2
13:19 89.5 °F /  31.9 °C 65.7 °F /  18.7 °C 30.07in /  1018.2hPa NW 3.1mph /  5km/h 10mph /  16.1km/h 45.5% 0.00in /  0mm 1027 W/m2
13:24 90.1 °F /  32.3 °C 64.5 °F /  18.1 °C 30.06in /  1017.8hPa West 4.6mph /  7.4km/h 12mph /  19.3km/h 42.8% 0.00in /  0mm 926 W/m2
13:29 90.3 °F /  32.4 °C 64.5 °F /  18.1 °C 30.06in /  1017.8hPa WSW 3.9mph /  6.3km/h 12mph /  19.3km/h 42.6% 0.00in /  0mm 954 W/m2
13:34 90.6 °F /  32.6 °C 64.3 °F /  17.9 °C 30.06in /  1017.8hPa WNW 4.9mph /  7.9km/h 15mph /  24.1km/h 41.8% 0.00in /  0mm 954 W/m2
13:39 90.7 °F /  32.6 °C 63.7 °F /  17.6 °C 30.06in /  1017.8hPa WNW 6.6mph /  10.6km/h 16mph /  25.7km/h 40.9% 0.00in /  0mm 780 W/m2
13:44 90.6 °F /  32.6 °C 63.6 °F /  17.6 °C 30.06in /  1017.8hPa West 4mph /  6.4km/h 16mph /  25.7km/h 40.8% 0.00in /  0mm 640 W/m2
13:49 90.4 °F /  32.4 °C 63.7 °F /  17.6 °C 30.05in /  1017.5hPa WNW 3.9mph /  6.3km/h 16mph /  25.7km/h 41.2% 0.00in /  0mm 417 W/m2
13:54 90 °F /  32.2 °C 63 °F /  17.2 °C 30.05in /  1017.5hPa WNW 5mph /  8km/h 16mph /  25.7km/h 40.7% 0.00in /  0mm 624 W/m2
13:59 89.7 °F /  32.1 °C 63.6 °F /  17.6 °C 30.05in /  1017.5hPa West 2.4mph /  3.9km/h 16mph /  25.7km/h 42.1% 0.00in /  0mm 735 W/m2
14:04 89.7 °F /  32.1 °C 64.1 °F /  17.8 °C 30.05in /  1017.5hPa West 3.1mph /  5km/h 16mph /  25.7km/h 42.7% 0.00in /  0mm 735 W/m2
14:09 89.8 °F /  32.1 °C 64.4 °F /  18 °C 30.05in /  1017.5hPa WNW 4.7mph /  7.6km/h 12mph /  19.3km/h 43.1% 0.00in /  0mm 904 W/m2
14:14 89.7 °F /  32.1 °C 64.1 °F /  17.8 °C 30.04in /  1017.2hPa West 5.4mph /  8.7km/h 12mph /  19.3km/h 42.9% 0.00in /  0mm 925 W/m2
14:19 89.9 °F /  32.2 °C 64.2 °F /  17.9 °C 30.04in /  1017.2hPa WNW 7mph /  11.3km/h 13mph /  20.9km/h 42.6% 0.00in /  0mm 853 W/m2
14:24 90 °F /  32.2 °C 64.4 °F /  18 °C 30.04in /  1017.2hPa West 4.9mph /  7.9km/h 13mph /  20.9km/h 42.9% 0.00in /  0mm 853 W/m2
14:29 89.9 °F /  32.2 °C 63.6 °F /  17.6 °C 30.04in /  1017.2hPa WNW 5.9mph /  9.5km/h 15mph /  24.1km/h 41.8% 0.00in /  0mm 649 W/m2
14:34 89.6 °F /  32 °C 63.8 °F /  17.7 °C 30.04in /  1017.2hPa NW 5.4mph /  8.7km/h 15mph /  24.1km/h 42.5% 0.00in /  0mm 745 W/m2
14:39 89.5 °F /  31.9 °C 64.4 °F /  18 °C 30.04in /  1017.2hPa West 5.5mph /  8.9km/h 19mph /  30.6km/h 43.5% 0.00in /  0mm 745 W/m2
14:44 89.3 °F /  31.8 °C 63.5 °F /  17.5 °C 30.03in /  1016.8hPa West 6mph /  9.7km/h 19mph /  30.6km/h 42.5% 0.00in /  0mm 499 W/m2
14:49 89.1 °F /  31.7 °C 64.4 °F /  18 °C 30.03in /  1016.8hPa West 4.7mph /  7.6km/h 19mph /  30.6km/h 44.1% 0.00in /  0mm 819 W/m2
14:54 89.2 °F /  31.8 °C 64.1 °F /  17.8 °C 30.03in /  1016.8hPa West 5.2mph /  8.4km/h 19mph /  30.6km/h 43.5% 0.00in /  0mm 613 W/m2
14:59 89.3 °F /  31.8 °C 64.1 °F /  17.8 °C 30.03in /  1016.8hPa WNW 5.5mph /  8.9km/h 19mph /  30.6km/h 43.4% 0.00in /  0mm 406 W/m2
15:04 89.1 °F /  31.7 °C 63.8 °F /  17.7 °C 30.03in /  1016.8hPa WNW 3.3mph /  5.3km/h 19mph /  30.6km/h 43.2% 0.00in /  0mm 406 W/m2
15:09 89 °F /  31.7 °C 64.2 °F /  17.9 °C 30.03in /  1016.8hPa WNW 2.6mph /  4.2km/h 10mph /  16.1km/h 44% 0.00in /  0mm 311 W/m2
15:14 88.8 °F /  31.6 °C 63.9 °F /  17.7 °C 30.03in /  1016.8hPa NW 5.5mph /  8.9km/h 14mph /  22.5km/h 43.7% 0.00in /  0mm 290 W/m2
15:19 88.3 °F /  31.3 °C 63.5 °F /  17.5 °C 30.02in /  1016.5hPa WNW 4.1mph /  6.6km/h 14mph /  22.5km/h 43.8% 0.00in /  0mm 315 W/m2
15:24 87.9 °F /  31.1 °C 63.6 °F /  17.6 °C 30.02in /  1016.5hPa WNW 2.6mph /  4.2km/h 14mph /  22.5km/h 44.4% 0.00in /  0mm 420 W/m2
15:29 87.8 °F /  31 °C 63.9 °F /  17.7 °C 30.02in /  1016.5hPa NW 2.9mph /  4.7km/h 14mph /  22.5km/h 45.2% 0.00in /  0mm 420 W/m2
15:34 87.8 °F /  31 °C 63.6 °F /  17.6 °C 30.02in /  1016.5hPa NW 3.5mph /  5.6km/h 14mph /  22.5km/h 44.6% 0.00in /  0mm 301 W/m2
15:39 87.8 °F /  31 °C 63.7 °F /  17.6 °C 30.02in /  1016.5hPa NW 5.4mph /  8.7km/h 14mph /  22.5km/h 44.9% 0.00in /  0mm 601 W/m2
15:44 87.9 °F /  31.1 °C 64.2 °F /  17.9 °C 30.01in /  1016.1hPa NNW 0.9mph /  1.4km/h 14mph /  22.5km/h 45.5% 0.00in /  0mm 601 W/m2
15:49 88.2 °F /  31.2 °C 64.7 °F /  18.2 °C 30.01in /  1016.1hPa NW 4.8mph /  7.7km/h 14mph /  22.5km/h 45.8% 0.00in /  0mm 527 W/m2
15:54 88.2 °F /  31.2 °C 63.5 °F /  17.5 °C 30.01in /  1016.1hPa WNW 6.9mph /  11.1km/h 19mph /  30.6km/h 43.9% 0.00in /  0mm 214 W/m2
15:59 87.9 °F /  31.1 °C 62.9 °F /  17.2 °C 30.01in /  1016.1hPa WNW 6.4mph /  10.3km/h 19mph /  30.6km/h 43.5% 0.00in /  0mm 417 W/m2
16:00 87.7 °F /  30.9 °C 63.1 °F /  17.3 °C 30.00in /  1015.8hPa NW 10mph /  16.1km/h 19mph /  30.6km/h 44% 0.00in /  0mm 262 W/m2
16:09 87.7 °F /  30.9 °C 63.4 °F /  17.4 °C 30.00in /  1015.8hPa WNW 6.1mph /  9.8km/h 15mph /  24.1km/h 44.5% 0.00in /  0mm 622 W/m2
16:14 87.8 °F /  31 °C 63.9 °F /  17.7 °C 30.00in /  1015.8hPa WNW 3mph /  4.8km/h 15mph /  24.1km/h 45.1% 0.00in /  0mm 160 W/m2
16:19 87.9 °F /  31.1 °C 63.9 °F /  17.7 °C 30.00in /  1015.8hPa WNW 6.3mph /  10.1km/h 15mph /  24.1km/h 45% 0.00in /  0mm 144 W/m2
16:24 87.6 °F /  30.9 °C 63.5 °F /  17.5 °C 30.00in /  1015.8hPa WNW 3.2mph /  5.1km/h 15mph /  24.1km/h 44.7% 0.00in /  0mm 109 W/m2
16:29 87.3 °F /  30.7 °C 63.6 °F /  17.6 °C 30.00in /  1015.8hPa WNW 3.5mph /  5.6km/h 15mph /  24.1km/h 45.3% 0.00in /  0mm 111 W/m2
16:34 87 °F /  30.6 °C 63.1 °F /  17.3 °C 30.00in /  1015.8hPa WNW 4.6mph /  7.4km/h 15mph /  24.1km/h 45% 0.00in /  0mm 116 W/m2
16:39 86.7 °F /  30.4 °C 63.5 °F /  17.5 °C 30.00in /  1015.8hPa WNW 2.1mph /  3.4km/h 7mph /  11.3km/h 45.9% 0.00in /  0mm 134 W/m2
16:44 86.7 °F /  30.4 °C 63.1 °F /  17.3 °C 29.99in /  1015.5hPa NW 2.6mph /  4.2km/h 9mph /  14.5km/h 45.4% 0.00in /  0mm 162 W/m2
16:49 86.8 °F /  30.4 °C 63.7 °F /  17.6 °C 29.99in /  1015.5hPa WNW 3.6mph /  5.8km/h 12mph /  19.3km/h 46.1% 0.00in /  0mm 169 W/m2
16:54 87 °F /  30.6 °C 63.5 °F /  17.5 °C 29.99in /  1015.5hPa WNW 3.4mph /  5.5km/h 12mph /  19.3km/h 45.6% 0.00in /  0mm 163 W/m2
16:59 87.1 °F /  30.6 °C 63.7 °F /  17.6 °C 29.99in /  1015.5hPa WNW 2.5mph /  4km/h 12mph /  19.3km/h 45.8% 0.00in /  0mm 135 W/m2
17:04 87.1 °F /  30.6 °C 63.5 °F /  17.5 °C 29.99in /  1015.5hPa WNW 0.9mph /  1.4km/h 12mph /  19.3km/h 45.5% 0.00in /  0mm 155 W/m2
17:09 87.1 °F /  30.6 °C 64.1 °F /  17.8 °C 29.99in /  1015.5hPa NW 1.7mph /  2.7km/h 5mph /  8km/h 46.5% 0.00in /  0mm 149 W/m2
17:14 87 °F /  30.6 °C 63.3 °F /  17.4 °C 29.99in /  1015.5hPa NW 3.5mph /  5.6km/h 12mph /  19.3km/h 45.3% 0.00in /  0mm 130 W/m2
17:19 86.9 °F /  30.5 °C 63.4 °F /  17.4 °C 29.99in /  1015.5hPa WSW 1.7mph /  2.7km/h 12mph /  19.3km/h 45.7% 0.00in /  0mm 141 W/m2
17:24 86.8 °F /  30.4 °C 63.9 °F /  17.7 °C 29.99in /  1015.5hPa NW 1.7mph /  2.7km/h 12mph /  19.3km/h 46.6% 0.00in /  0mm 144 W/m2
17:29 86.7 °F /  30.4 °C 63.6 °F /  17.6 °C 29.99in /  1015.5hPa WNW 2.6mph /  4.2km/h 12mph /  19.3km/h 46.1% 0.00in /  0mm 155 W/m2
17:34 86.7 °F /  30.4 °C 63.2 °F /  17.3 °C 29.98in /  1015.1hPa NW 2.8mph /  4.5km/h 12mph /  19.3km/h 45.6% 0.00in /  0mm 155 W/m2
17:39 86.7 °F /  30.4 °C 63.4 °F /  17.4 °C 29.98in /  1015.1hPa NW 1.4mph /  2.3km/h 7mph /  11.3km/h 45.9% 0.00in /  0mm 149 W/m2
17:44 86.7 °F /  30.4 °C 63.4 °F /  17.4 °C 29.98in /  1015.1hPa NW 3.5mph /  5.6km/h 10mph /  16.1km/h 45.9% 0.00in /  0mm 151 W/m2
17:49 86.7 °F /  30.4 °C 63.2 °F /  17.3 °C 29.98in /  1015.1hPa NW 3.2mph /  5.1km/h 10mph /  16.1km/h 45.6% 0.00in /  0mm 144 W/m2
17:54 86.7 °F /  30.4 °C 63.1 °F /  17.3 °C 29.98in /  1015.1hPa NW 3mph /  4.8km/h 10mph /  16.1km/h 45.5% 0.00in /  0mm 139 W/m2
17:59 86.6 °F /  30.3 °C 63.1 °F /  17.3 °C 29.98in /  1015.1hPa WNW 3mph /  4.8km/h 11mph /  17.7km/h 45.6% 0.00in /  0mm 134 W/m2
18:04 86.5 °F /  30.3 °C 62.9 °F /  17.2 °C 29.98in /  1015.1hPa WNW 3.3mph /  5.3km/h 12mph /  19.3km/h 45.5% 0.00in /  0mm 118 W/m2
18:09 86.3 °F /  30.2 °C 62.8 °F /  17.1 °C 29.98in /  1015.1hPa WNW 2.7mph /  4.3km/h 12mph /  19.3km/h 45.5% 0.00in /  0mm 107 W/m2
18:14 86.1 °F /  30.1 °C 62.6 °F /  17 °C 29.98in /  1015.1hPa WNW 2.7mph /  4.3km/h 12mph /  19.3km/h 45.5% 0.00in /  0mm 98 W/m2
18:19 85.9 °F /  29.9 °C 62.7 °F /  17.1 °C 29.98in /  1015.1hPa WNW 2.3mph /  3.7km/h 12mph /  19.3km/h 45.8% 0.00in /  0mm 90 W/m2
18:24 85.7 °F /  29.8 °C 62 °F /  16.7 °C 29.98in /  1015.1hPa WNW 2.1mph /  3.4km/h 12mph /  19.3km/h 45.2% 0.00in /  0mm 84 W/m2
18:29 85.4 °F /  29.7 °C 61.6 °F /  16.4 °C 29.98in /  1015.1hPa NW 3.6mph /  5.8km/h 14mph /  22.5km/h 44.8% 0.00in /  0mm 81 W/m2
18:34 85.2 °F /  29.6 °C 61.4 °F /  16.3 °C 29.98in /  1015.1hPa NW 3.4mph /  5.5km/h 14mph /  22.5km/h 45% 0.00in /  0mm 74 W/m2
18:39 84.9 °F /  29.4 °C 61.3 °F /  16.3 °C 29.98in /  1015.1hPa WNW 3.4mph /  5.5km/h 11mph /  17.7km/h 45% 0.00in /  0mm 65 W/m2
18:44 84.8 °F /  29.3 °C 60.5 °F /  15.8 °C 29.98in /  1015.1hPa WNW 3.4mph /  5.5km/h 11mph /  17.7km/h 44% 0.00in /  0mm 63 W/m2
18:49 84.8 °F /  29.3 °C 60.7 °F /  15.9 °C 29.98in /  1015.1hPa WNW 4.8mph /  7.7km/h 12mph /  19.3km/h 44.3% 0.00in /  0mm 62 W/m2
18:54 84.7 °F /  29.3 °C 60.4 °F /  15.8 °C 29.98in /  1015.1hPa WNW 3.1mph /  5km/h 12mph /  19.3km/h 44% 0.00in /  0mm 58 W/m2
18:59 84.6 °F /  29.2 °C 60.5 °F /  15.8 °C 29.98in /  1015.1hPa WNW 3mph /  4.8km/h 12mph /  19.3km/h 44.4% 0.00in /  0mm 53 W/m2
19:04 84.4 °F /  29.1 °C 60.7 °F /  15.9 °C 29.98in /  1015.1hPa West 4.1mph /  6.6km/h 12mph /  19.3km/h 45% 0.00in /  0mm 47 W/m2
19:09 84.1 °F /  28.9 °C 60.8 °F /  16 °C 29.98in /  1015.1hPa WNW 1.7mph /  2.7km/h 12mph /  19.3km/h 45.4% 0.00in /  0mm 40 W/m2
19:14 83.9 °F /  28.8 °C 60.8 °F /  16 °C 29.98in /  1015.1hPa WNW 3.1mph /  5km/h 12mph /  19.3km/h 45.8% 0.00in /  0mm 37 W/m2
19:19 83.7 °F /  28.7 °C 60.6 °F /  15.9 °C 29.98in /  1015.1hPa NW 2.1mph /  3.4km/h 12mph /  19.3km/h 45.8% 0.00in /  0mm 35 W/m2
19:24 83.4 °F /  28.6 °C 60.5 °F /  15.8 °C 29.98in /  1015.1hPa WNW 2.7mph /  4.3km/h 12mph /  19.3km/h 46% 0.00in /  0mm 30 W/m2
19:29 83.2 °F /  28.4 °C 60.8 °F /  16 °C 29.97in /  1014.8hPa WNW 0.4mph /  0.6km/h 12mph /  19.3km/h 46.8% 0.00in /  0mm 26 W/m2
19:34 83.1 °F /  28.4 °C 60.8 °F /  16 °C 29.97in /  1014.8hPa WNW 1.3mph /  2.1km/h 12mph /  19.3km/h 47% 0.00in /  0mm 23 W/m2
19:39 82.8 °F /  28.2 °C 60.6 °F /  15.9 °C 29.97in /  1014.8hPa West 3mph /  4.8km/h 7mph /  11.3km/h 47% 0.00in /  0mm 21 W/m2
19:44 82.7 °F /  28.2 °C 60.7 °F /  15.9 °C 29.97in /  1014.8hPa WNW 2.4mph /  3.9km/h 7mph /  11.3km/h 47.4% 0.00in /  0mm 21 W/m2
19:49 82.5 °F /  28.1 °C 60.7 °F /  15.9 °C 29.97in /  1014.8hPa WNW 0.7mph /  1.1km/h 7mph /  11.3km/h 47.6% 0.00in /  0mm 19 W/m2
19:54 82.4 °F /  28 °C 60.8 °F /  16 °C 29.97in /  1014.8hPa Calm   7mph /  11.3km/h 48% 0.00in /  0mm 16 W/m2
19:59 82.3 °F /  27.9 °C 60.7 °F /  15.9 °C 29.97in /  1014.8hPa Calm   7mph /  11.3km/h 48% 0.00in /  0mm 12 W/m2
20:00 82.3 °F /  27.9 °C 60.7 °F /  15.9 °C 29.97in /  1014.8hPa Calm   7mph /  11.3km/h 48% 0.00in /  0mm 9 W/m2
20:09 82.1 °F /  27.8 °C 60.9 °F /  16.1 °C 29.97in /  1014.8hPa WNW 0.3mph /  0.5km/h 3mph /  4.8km/h 48.7% 0.00in /  0mm 5 W/m2
20:14 81.9 °F /  27.7 °C 60.9 °F /  16.1 °C 29.97in /  1014.8hPa Calm   3mph /  4.8km/h 49% 0.00in /  0mm 5 W/m2
20:19 81.8 °F /  27.7 °C 60.8 °F /  16 °C 29.97in /  1014.8hPa WNW 0.1mph /  0.2km/h 3mph /  4.8km/h 49% 0.00in /  0mm 0 W/m2
20:24 81.6 °F /  27.6 °C 60.6 °F /  15.9 °C 29.97in /  1014.8hPa WNW 0.4mph /  0.6km/h 3mph /  4.8km/h 49% 0.00in /  0mm 0 W/m2
20:29 81.4 °F /  27.4 °C 60.6 °F /  15.9 °C 29.97in /  1014.8hPa Calm   3mph /  4.8km/h 49.4% 0.00in /  0mm 0 W/m2
20:34 81.2 °F /  27.3 °C 60.8 °F /  16 °C 29.97in /  1014.8hPa Calm   3mph /  4.8km/h 50% 0.00in /  0mm 0 W/m2
20:39 81 °F /  27.2 °C 61 °F /  16.1 °C 29.96in /  1014.4hPa Calm     50.7% 0.00in /  0mm 0 W/m2
20:44 80.7 °F /  27.1 °C 60.9 °F /  16.1 °C 29.96in /  1014.4hPa Calm     51% 0.00in /  0mm 0 W/m2
20:49 80.5 °F /  26.9 °C 60.8 °F /  16 °C 29.96in /  1014.4hPa Calm     51.3% 0.00in /  0mm 0 W/m2
20:54 80.2 °F /  26.8 °C 61 °F /  16.1 °C 29.96in /  1014.4hPa Calm     52% 0.00in /  0mm 0 W/m2
20:59 80.1 °F /  26.7 °C 60.9 °F /  16.1 °C 29.97in /  1014.8hPa Calm     52% 0.00in /  0mm 0 W/m2
21:04 79.9 °F /  26.6 °C 60.7 °F /  15.9 °C 29.97in /  1014.8hPa Calm     52% 0.00in /  0mm 0 W/m2
21:09 79.7 °F /  26.5 °C 61 °F /  16.1 °C 29.97in /  1014.8hPa Calm     52.8% 0.00in /  0mm 0 W/m2
21:14 79.5 °F /  26.4 °C 60.9 °F /  16.1 °C 29.97in /  1014.8hPa Calm     53% 0.00in /  0mm 0 W/m2
21:19 79.3 °F /  26.3 °C 60.7 °F /  15.9 °C 29.97in /  1014.8hPa Calm     53% 0.00in /  0mm 0 W/m2
21:24 79.1 °F /  26.2 °C 60.8 °F /  16 °C 29.97in /  1014.8hPa Calm     53.5% 0.00in /  0mm 0 W/m2
21:29 79 °F /  26.1 °C 60.9 °F /  16.1 °C 29.97in /  1014.8hPa Calm     54% 0.00in /  0mm 0 W/m2
21:34 78.9 °F /  26.1 °C 60.8 °F /  16 °C 29.97in /  1014.8hPa Calm     54% 0.00in /  0mm 0 W/m2
21:39 78.7 °F /  25.9 °C 61 °F /  16.1 °C 29.97in /  1014.8hPa Calm     54.5% 0.00in /  0mm 0 W/m2
21:44 78.6 °F /  25.9 °C 61.1 °F /  16.2 °C 29.97in /  1014.8hPa Calm     55% 0.00in /  0mm 0 W/m2
21:49 78.5 °F /  25.8 °C 61 °F /  16.1 °C 29.97in /  1014.8hPa Calm     55% 0.00in /  0mm 0 W/m2
21:54 78.3 °F /  25.7 °C 60.9 °F /  16.1 °C 29.97in /  1014.8hPa WNW 0.1mph /  0.2km/h 1mph /  1.6km/h 55.1% 0.00in /  0mm 0 W/m2
21:59 78.2 °F /  25.7 °C 61.2 °F /  16.2 °C 29.97in /  1014.8hPa Calm   1mph /  1.6km/h 55.9% 0.00in /  0mm 0 W/m2
22:04 78 °F /  25.6 °C 61.3 °F /  16.3 °C 29.97in /  1014.8hPa Calm   1mph /  1.6km/h 56.4% 0.00in /  0mm 0 W/m2
22:09 77.8 °F /  25.4 °C 61.4 °F /  16.3 °C 29.97in /  1014.8hPa Calm   1mph /  1.6km/h 57% 0.00in /  0mm 0 W/m2
22:14 77.6 °F /  25.3 °C 61.2 °F /  16.2 °C 29.97in /  1014.8hPa Calm   1mph /  1.6km/h 57% 0.00in /  0mm 0 W/m2
22:19 77.5 °F /  25.3 °C 61.5 °F /  16.4 °C 29.97in /  1014.8hPa WNW 0.1mph /  0.2km/h 3mph /  4.8km/h 57.9% 0.00in /  0mm 0 W/m2
22:24 77.2 °F /  25.1 °C 61.3 °F /  16.3 °C 29.97in /  1014.8hPa WNW 1.1mph /  1.8km/h 5mph /  8km/h 58% 0.00in /  0mm 0 W/m2
22:29 76.9 °F /  24.9 °C 61.2 °F /  16.2 °C 29.96in /  1014.4hPa West 1.5mph /  2.4km/h 7mph /  11.3km/h 58.4% 0.00in /  0mm 0 W/m2
22:34 76.7 °F /  24.8 °C 61 °F /  16.1 °C 29.96in /  1014.4hPa West 0.4mph /  0.6km/h 7mph /  11.3km/h 58.2% 0.00in /  0mm 0 W/m2
22:39 76.6 °F /  24.8 °C 61 °F /  16.1 °C 29.96in /  1014.4hPa WNW 1.5mph /  2.4km/h 9mph /  14.5km/h 58.5% 0.00in /  0mm 0 W/m2
22:44 76.5 °F /  24.7 °C 60.7 °F /  15.9 °C 29.96in /  1014.4hPa West 1.5mph /  2.4km/h 9mph /  14.5km/h 58.2% 0.00in /  0mm 0 W/m2
22:49 76.4 °F /  24.7 °C 61 °F /  16.1 °C 29.96in /  1014.4hPa WNW 0.7mph /  1.1km/h 9mph /  14.5km/h 59% 0.00in /  0mm 0 W/m2
22:54 76.4 °F /  24.7 °C 61 °F /  16.1 °C 29.95in /  1014.1hPa WNW 0.6mph /  1km/h 9mph /  14.5km/h 59% 0.00in /  0mm 0 W/m2
22:59 76.3 °F /  24.6 °C 61 °F /  16.1 °C 29.95in /  1014.1hPa WNW 1.8mph /  2.9km/h 9mph /  14.5km/h 59% 0.00in /  0mm 0 W/m2
23:04 76.3 °F /  24.6 °C 60.9 °F /  16.1 °C 29.95in /  1014.1hPa WNW 2.2mph /  3.5km/h 9mph /  14.5km/h 59% 0.00in /  0mm 0 W/m2
23:09 76.3 °F /  24.6 °C 60.9 °F /  16.1 °C 29.95in /  1014.1hPa WNW 2.1mph /  3.4km/h 10mph /  16.1km/h 59% 0.00in /  0mm 0 W/m2
23:14 76.3 °F /  24.6 °C 60.9 °F /  16.1 °C 29.95in /  1014.1hPa WNW 2.4mph /  3.9km/h 10mph /  16.1km/h 59% 0.00in /  0mm 0 W/m2
23:19 76.3 °F /  24.6 °C 60.9 °F /  16.1 °C 29.95in /  1014.1hPa WNW 3.9mph /  6.3km/h 12mph /  19.3km/h 59% 0.00in /  0mm 0 W/m2
23:24 76.4 °F /  24.7 °C 60.9 °F /  16.1 °C 29.95in /  1014.1hPa WNW 3.6mph /  5.8km/h 12mph /  19.3km/h 58.8% 0.00in /  0mm 0 W/m2
23:29 76.4 °F /  24.7 °C 60.7 °F /  15.9 °C 29.95in /  1014.1hPa West 3mph /  4.8km/h 12mph /  19.3km/h 58.1% 0.00in /  0mm 0 W/m2
23:34 76.5 °F /  24.7 °C 60.8 °F /  16 °C 29.95in /  1014.1hPa WNW 2mph /  3.2km/h 12mph /  19.3km/h 58.3% 0.00in /  0mm 0 W/m2
23:39 76.5 °F /  24.7 °C 61.1 °F /  16.2 °C 29.95in /  1014.1hPa WNW 5.5mph /  8.9km/h 13mph /  20.9km/h 59% 0.00in /  0mm 0 W/m2
23:44 76.5 °F /  24.7 °C 61.1 °F /  16.2 °C 29.95in /  1014.1hPa WNW 3.5mph /  5.6km/h 13mph /  20.9km/h 59% 0.00in /  0mm 0 W/m2
23:49 76.5 °F /  24.7 °C 61.1 °F /  16.2 °C 29.94in /  1013.8hPa WNW 4.5mph /  7.2km/h 13mph /  20.9km/h 59% 0.00in /  0mm 0 W/m2
23:54 76.4 °F /  24.7 °C 61 °F /  16.1 °C 29.94in /  1013.8hPa WNW 4.5mph /  7.2km/h 15mph /  24.1km/h 59% 0.00in /  0mm 0 W/m2
23:59 76.4 °F /  24.7 °C 61 °F /  16.1 °C 29.94in /  1013.8hPa WNW 3.8mph /  6.1km/h 15mph /  24.1km/h 59% 0.00in /  0mm 0 W/m2
Hartford County Weather
Compliments of Weather Underground - 4 mb